Time;durP1;ratioP1;P1;durP2;ratioP2;P2;SDS_P1;SDS_P2;PMS_P1;PMS_P2;Temp;Humidity;BMP_temperature;BMP_pressure;BME280_temperature;BME280_humidity;BME280_pressure;Samples;Min_cycle;Max_cycle;Signal;HPM_P1;HPM_P2
2022/11/11 00:01:20;;;;;;;20.92;13.82;;;;;;;10.49;100.00;102605.88;5013401;28;20068;-49
2022/11/11 00:03:45;;;;;;;21.75;14.27;;;;;;;10.52;100.00;102616.41;5013142;28;20492;-50
2022/11/11 00:06:13;;;;;;;22.48;14.48;;;;;;;10.20;100.00;102573.53;5012872;28;20038;-48
2022/11/11 00:08:38;;;;;;;25.60;15.32;;;;;;;10.13;100.00;102562.13;4995371;28;20029;-53
2022/11/11 00:11:05;;;;;;;18.92;15.32;;;;;;;10.48;100.00;102626.94;5015832;28;20068;-49
2022/11/11 00:13:32;;;;;;;21.27;14.73;;;;;;;10.18;100.00;102564.78;5013739;28;20038;-54
2022/11/11 00:16:07;;;;;;;23.95;15.85;;;;;;;10.41;100.00;102622.59;4995775;28;20319;-53
2022/11/11 00:26:44;;;;;;;22.45;16.63;;;;;;;9.89;100.00;102556.94;5012731;28;20183;-55
2022/11/11 00:29:10;;;;;;;26.85;17.13;;;;;;;9.90;100.00;102549.88;5012247;28;20473;-52
2022/11/11 00:32:21;;;;;;;27.35;17.92;;;;;;;9.93;100.00;102552.50;5012763;28;20056;-48
2022/11/11 00:34:20;;;;;;;29.83;18.67;;;;;;;10.19;100.00;102603.34;5012476;28;20448;-49
2022/11/11 00:36:46;;;;;;;23.50;17.42;;;;;;;9.83;100.00;102538.53;5012601;28;20037;-50
2022/11/11 00:39:11;;;;;;;25.02;18.25;;;;;;;10.13;100.00;102588.44;5012660;28;20037;-48
2022/11/11 00:41:36;;;;;;;24.67;18.75;;;;;;;10.13;100.00;102583.19;5012674;28;20053;-51
2022/11/11 00:44:01;;;;;;;23.83;17.70;;;;;;;10.13;100.00;102583.19;5012709;28;20505;-51
2022/11/11 00:51:54;;;;;;;24.23;17.55;;;;;;;10.09;100.00;102585.81;5012766;28;20099;-54
2022/11/11 00:54:20;;;;;;;30.17;19.98;;;;;;;9.78;100.00;102534.16;5012528;28;20034;-47
2022/11/11 00:56:45;;;;;;;25.15;19.20;;;;;;;10.01;100.00;102583.19;5011933;28;20044;-47
2022/11/11 00:59:11;;;;;;;25.55;19.50;;;;;;;10.01;100.00;102584.97;5012527;28;20038;-58
2022/11/11 01:01:36;;;;;;;34.80;20.95;;;;;;;9.94;100.00;102570.94;5012704;28;20033;-50
2022/11/11 01:04:02;;;;;;;33.70;21.02;;;;;;;9.97;100.00;102572.69;5012304;28;20034;-49
2022/11/11 01:06:28;;;;;;;26.83;19.52;;;;;;;9.96;100.00;102573.56;5020829;28;20038;-48
2022/11/11 01:08:53;;;;;;;31.67;21.90;;;;;;;9.90;100.00;102566.56;5011910;28;20049;-53
2022/11/11 01:11:21;;;;;;;28.50;19.00;;;;;;;10.02;100.00;102576.16;5019139;28;20176;-50
2022/11/11 01:13:47;;;;;;;28.98;20.20;;;;;;;10.00;100.00;102570.94;5026314;28;20038;-52
2022/11/11 01:16:15;;;;;;;29.92;20.35;;;;;;;9.62;100.00;102504.38;5003012;28;20051;-51
2022/11/11 01:18:41;;;;;;;27.73;20.83;;;;;;;9.89;100.00;102562.19;5014422;28;20496;-49
2022/11/11 01:21:13;;;;;;;31.85;21.67;;;;;;;9.71;100.00;102519.28;5014247;28;20064;-49
2022/11/11 01:23:40;;;;;;;30.92;20.65;;;;;;;9.87;100.00;102563.94;5014175;28;20073;-53
2022/11/11 01:26:10;;;;;;;27.45;19.58;;;;;;;9.89;100.00;102579.72;5031932;28;20034;-51
2022/11/11 01:28:35;;;;;;;29.33;19.97;;;;;;;9.56;100.00;102528.94;5032086;28;20037;-51
2022/11/11 01:31:07;;;;;;;27.23;20.65;;;;;;;9.76;100.00;102570.97;5031982;28;20037;-49
2022/11/11 01:33:33;;;;;;;34.30;20.30;;;;;;;9.81;100.00;102571.81;5031809;28;20451;-50
2022/11/11 01:36:03;;;;;;;30.15;21.05;;;;;;;9.79;100.00;102573.59;5031431;28;20080;-49
2022/11/11 01:38:28;;;;;;;28.15;20.75;;;;;;;9.78;100.00;102566.56;5032049;28;20033;-53
2022/11/11 01:40:54;;;;;;;33.08;20.60;;;;;;;9.90;100.00;102584.97;5032116;28;20143;-48
2022/11/11 01:43:21;;;;;;;30.05;21.65;;;;;;;9.56;100.00;102533.31;5031632;28;20041;-52
2022/11/11 01:46:03;;;;;;;34.15;22.20;;;;;;;9.82;100.00;102589.38;5031000;28;20056;-54
2022/11/11 01:51:33;;;;;;;29.52;20.67;;;;;;;9.71;100.00;102562.22;5016806;28;20099;-50
2022/11/11 01:54:02;;;;;;;30.98;20.80;;;;;;;9.79;100.00;102570.97;5031693;28;20453;-53
2022/11/11 01:56:27;;;;;;;32.28;22.00;;;;;;;9.81;100.00;102569.19;4997555;28;20108;-53
2022/11/11 01:58:55;;;;;;;34.00;21.98;;;;;;;9.79;100.00;102562.19;5031628;28;20453;-53
2022/11/11 02:01:20;;;;;;;31.90;21.83;;;;;;;9.79;100.00;102567.47;5008256;28;20033;-51
2022/11/11 02:06:33;;;;;;;33.42;21.50;;;;;;;9.42;100.00;102530.72;5001956;28;20433;-56
2022/11/11 02:08:58;;;;;;;30.83;21.42;;;;;;;9.59;100.00;102567.50;5024256;28;20064;-51
2022/11/11 02:16:52;;;;;;;33.63;22.30;;;;;;;9.64;100.00;102560.47;5035006;28;20044;-50
2022/11/11 02:19:25;;;;;;;30.50;22.10;;;;;;;9.63;100.00;102568.38;5034876;28;20038;-53
2022/11/11 02:21:56;;;;;;;37.17;22.95;;;;;;;9.39;100.00;102532.47;5017338;28;20469;-53
2022/11/11 02:24:22;;;;;;;38.38;21.63;;;;;;;9.63;100.00;102562.22;5017387;28;20033;-55
2022/11/11 02:26:48;;;;;;;35.40;22.48;;;;;;;9.61;100.00;102566.59;5017037;28;20044;-55
2022/11/11 02:29:16;;;;;;;33.75;21.52;;;;;;;9.63;100.00;102566.63;5017043;28;20393;-56
2022/11/11 02:31:41;;;;;;;29.30;20.67;;;;;;;9.63;100.00;102576.25;5017275;28;20121;-49
2022/11/11 02:34:07;;;;;;;33.60;22.95;;;;;;;9.61;100.00;102577.13;5034546;28;20136;-52
2022/11/11 02:36:32;;;;;;;34.97;23.33;;;;;;;9.51;100.00;102564.88;5034822;28;20041;-55
2022/11/11 02:38:58;;;;;;;38.78;22.65;;;;;;;9.16;100.00;102519.34;5034584;28;20037;-51
2022/11/11 02:44:07;;;;;;;37.30;24.55;;;;;;;9.46;100.00;102571.00;5019819;28;20463;-50
2022/11/11 02:46:33;;;;;;;38.17;24.48;;;;;;;9.16;100.00;102528.97;5034405;28;20041;-55
2022/11/11 02:48:58;;;;;;;40.65;25.42;;;;;;;9.35;100.00;102568.38;5034699;28;20038;-55
2022/11/11 02:51:23;;;;;;;41.58;26.08;;;;;;;9.15;100.00;102521.94;5016959;28;20128;-57
2022/11/11 02:53:49;;;;;;;36.20;25.08;;;;;;;9.41;100.00;102562.25;5034356;28;20052;-51
2022/11/11 02:57:05;;;;;;;39.65;26.08;;;;;;;9.39;100.00;102572.75;5030757;28;20049;-51
2022/11/11 02:58:59;;;;;;;37.28;25.70;;;;;;;9.35;100.00;102568.38;5027442;28;20091;-54
2022/11/11 03:01:25;;;;;;;40.08;26.48;;;;;;;9.35;100.00;102578.00;5017423;28;20108;-54
2022/11/11 03:03:50;;;;;;;41.13;27.58;;;;;;;9.24;100.00;102567.50;5029941;28;20033;-56
2022/11/11 03:06:15;;;;;;;44.92;28.02;;;;;;;9.34;100.00;102582.38;5021441;28;20037;-50
2022/11/11 03:08:40;;;;;;;42.83;26.25;;;;;;;9.32;100.00;102578.00;5005409;28;20033;-50
2022/11/11 03:11:06;;;;;;;46.05;28.25;;;;;;;9.34;100.00;102578.91;4994155;28;20037;-54
2022/11/11 03:13:31;;;;;;;40.08;27.50;;;;;;;9.36;100.00;102579.78;5017120;28;20436;-57
2022/11/11 03:15:56;;;;;;;44.38;27.77;;;;;;;9.19;100.00;102556.13;5028998;28;20066;-51
2022/11/11 03:18:22;;;;;;;44.17;28.00;;;;;;;9.34;100.00;102571.88;5022178;28;20040;-56
2022/11/11 03:21:05;;;;;;;46.85;28.33;;;;;;;9.46;100.00;102592.91;5003150;28;20034;-52
2022/11/11 03:23:31;;;;;;;46.45;28.98;;;;;;;9.16;100.00;102537.72;5030049;28;20128;-56
2022/11/11 03:25:56;;;;;;;47.83;28.75;;;;;;;9.29;100.00;102556.97;5018329;28;20124;-52
2022/11/11 03:28:23;;;;;;;47.58;26.63;;;;;;;9.40;100.00;102576.25;5025500;28;20057;-54
2022/11/11 03:30:49;;;;;;;49.55;29.30;;;;;;;9.43;100.00;102579.75;5025522;28;20037;-57
2022/11/11 03:33:16;;;;;;;44.15;29.58;;;;;;;9.14;100.00;102528.94;5018139;28;20385;-51
2022/11/11 03:35:42;;;;;;;47.58;29.13;;;;;;;9.45;100.00;102601.69;5029754;28;20472;-48
2022/11/11 03:38:25;;;;;;;45.25;30.88;;;;;;;9.45;100.00;102577.16;5019670;28;20392;-50
2022/11/11 03:40:52;;;;;;;42.08;28.33;;;;;;;9.20;100.00;102534.19;5005587;28;20033;-54
2022/11/11 03:43:19;;;;;;;48.17;29.48;;;;;;;9.53;100.00;102589.41;5011796;28;20029;-53
2022/11/11 03:45:44;;;;;;;43.40;29.05;;;;;;;9.26;100.00;102549.09;4998718;28;20025;-49
2022/11/11 03:48:10;;;;;;;48.10;28.85;;;;;;;9.30;100.00;102538.59;5008746;28;20072;-49
2022/11/11 03:50:36;;;;;;;42.45;27.17;;;;;;;9.37;100.00;102560.50;5005414;28;20029;-50
2022/11/11 03:53:01;;;;;;;42.70;27.90;;;;;;;9.58;100.00;102603.41;5019482;28;20034;-56
2022/11/11 03:55:27;;;;;;;44.70;27.05;;;;;;;9.57;100.00;102590.28;5011980;28;20033;-57
2022/11/11 03:57:53;;;;;;;44.70;27.67;;;;;;;9.60;100.00;102609.53;5017385;28;20413;-57
2022/11/11 04:00:20;;;;;;;40.67;25.98;;;;;;;9.32;100.00;102567.50;5025208;28;20121;-53
2022/11/11 04:11:12;;;;;;;41.55;26.00;;;;;;;9.50;100.00;102620.94;5026540;28;20048;-55
2022/11/11 04:16:23;;;;;;;44.95;27.23;;;;;;;9.40;100.00;102595.53;5024436;28;20057;-48
2022/11/11 04:21:44;;;;;;;39.35;27.77;;;;;;;9.34;100.00;102587.63;5016003;28;20073;-48
2022/11/11 04:26:59;;;;;;;40.38;27.63;;;;;;;8.98;100.00;102528.09;5025473;28;20048;-52
2022/11/11 04:29:28;;;;;;;41.45;27.33;;;;;;;9.23;100.00;102589.38;4995261;28;20026;-49
2022/11/11 04:34:42;;;;;;;42.55;27.10;;;;;;;9.17;100.00;102581.50;5007919;28;20052;-57
2022/11/11 04:37:08;;;;;;;44.80;28.42;;;;;;;9.18;100.00;102588.50;5000526;28;20042;-53
2022/11/11 04:42:17;;;;;;;44.97;29.60;;;;;;;9.07;100.00;102581.50;5020164;28;20151;-55
2022/11/11 04:47:26;;;;;;;45.05;29.58;;;;;;;8.99;100.00;102569.22;5028576;28;20092;-49
2022/11/11 04:49:52;;;;;;;44.03;30.08;;;;;;;8.61;100.00;102510.50;5016111;28;20488;-52
2022/11/11 04:52:26;;;;;;;45.90;29.60;;;;;;;8.57;100.00;102514.00;5024376;28;20195;-55
2022/11/11 04:57:44;;;;;;;42.95;30.27;;;;;;;8.84;100.00;102577.06;5012686;28;20133;-52
2022/11/11 05:00:12;;;;;;;50.95;31.77;;;;;;;8.79;100.00;102559.53;4995156;28;20076;-50
2022/11/11 05:05:22;;;;;;;52.78;33.53;;;;;;;8.94;100.00;102567.47;5012487;28;20078;-54
2022/11/11 05:10:31;;;;;;;55.55;32.33;;;;;;;8.93;100.00;102582.34;5012498;28;20045;-55
2022/11/11 05:21:19;;;;;;;48.33;32.33;;;;;;;8.92;100.00;102585.84;4995047;28;20038;-51
2022/11/11 05:21:21;;;;;;;45.90;31.85;;;;;;;8.91;100.00;102591.09;4997752;28;20041;-52
2022/11/11 05:26:34;;;;;;;44.58;31.45;;;;;;;8.96;100.00;102592.84;5013583;28;20059;-54
2022/11/11 05:29:00;;;;;;;47.05;30.15;;;;;;;8.93;100.00;102584.09;5011809;28;20050;-51
2022/11/11 05:31:26;;;;;;;45.22;30.40;;;;;;;8.99;100.00;102584.09;5012445;28;20045;-49
2022/11/11 05:33:51;;;;;;;47.15;29.98;;;;;;;8.75;100.00;102537.69;4994781;28;20096;-49
2022/11/11 05:36:16;;;;;;;43.75;30.42;;;;;;;9.02;100.00;102584.97;4994395;28;20158;-52
2022/11/11 05:38:42;;;;;;;42.97;28.40;;;;;;;8.63;100.00;102528.88;5012112;28;20073;-51
2022/11/11 05:41:08;;;;;;;49.63;29.95;;;;;;;8.94;100.00;102588.47;5012074;28;20077;-55
2022/11/11 05:43:33;;;;;;;41.15;29.15;;;;;;;8.88;100.00;102598.94;4996605;28;20470;-49
2022/11/11 05:45:58;;;;;;;49.58;29.02;;;;;;;8.87;100.00;102610.34;5016048;28;20640;-52
2022/11/11 05:48:23;;;;;;;46.47;30.70;;;;;;;8.53;100.00;102548.09;5016079;28;20215;-53
2022/11/11 05:50:49;;;;;;;45.55;30.13;;;;;;;8.83;100.00;102609.47;5016154;28;20034;-54
2022/11/11 05:53:14;;;;;;;46.42;30.17;;;;;;;8.77;100.00;102601.56;5015742;28;20477;-54
2022/11/11 05:55:39;;;;;;;45.50;30.00;;;;;;;8.75;100.00;102616.44;4997945;28;20123;-50
2022/11/11 05:58:06;;;;;;;46.42;29.30;;;;;;;8.77;100.00;102600.69;5019211;28;20033;-51
2022/11/11 06:00:31;;;;;;;45.38;29.88;;;;;;;8.79;100.00;102607.69;5026066;28;20037;-53
2022/11/11 06:03:07;;;;;;;48.88;30.00;;;;;;;8.79;100.00;102610.31;5035544;28;20044;-52
2022/11/11 06:05:35;;;;;;;46.25;30.75;;;;;;;8.79;100.00;102612.06;5003467;28;20029;-54
2022/11/11 06:08:00;;;;;;;49.90;30.83;;;;;;;8.83;100.00;102612.09;5034997;28;20083;-49
2022/11/11 06:10:29;;;;;;;45.83;31.08;;;;;;;8.86;100.00;102613.84;5032458;28;20420;-52
2022/11/11 06:13:03;;;;;;;46.63;29.92;;;;;;;8.53;100.00;102551.59;5015642;28;20568;-51
2022/11/11 06:15:29;;;;;;;47.97;30.23;;;;;;;8.56;100.00;102554.25;4998926;28;20057;-50
2022/11/11 06:17:54;;;;;;;42.63;28.27;;;;;;;8.03;100.00;102467.44;5018671;28;20077;-56
2022/11/11 06:20:20;;;;;;;46.28;30.10;;;;;;;8.87;100.00;102598.06;5031957;28;20112;-52
2022/11/11 06:22:57;;;;;;;49.45;31.73;;;;;;;8.97;100.00;102605.13;5001797;28;20083;-53
2022/11/11 06:28:12;;;;;;;44.72;30.30;;;;;;;8.71;100.00;102562.16;5030474;28;20047;-50
2022/11/11 06:30:37;;;;;;;45.83;30.25;;;;;;;8.49;100.00;102519.22;5000891;28;20185;-50
2022/11/11 06:33:03;;;;;;;51.03;31.67;;;;;;;9.02;100.00;102613.88;5027391;28;20489;-47
2022/11/11 06:35:28;;;;;;;43.33;29.33;;;;;;;9.07;100.00;102610.38;5024926;28;20045;-49
2022/11/11 06:37:54;;;;;;;44.80;31.10;;;;;;;9.05;100.00;102623.50;5020749;28;20164;-49
2022/11/11 06:40:19;;;;;;;46.90;30.38;;;;;;;8.60;100.00;102547.25;5013317;28;20400;-55
2022/11/11 06:42:45;;;;;;;49.45;30.73;;;;;;;8.96;100.00;102620.88;5019413;28;20112;-52
2022/11/11 06:45:10;;;;;;;43.30;29.60;;;;;;;8.94;100.00;102634.00;5022875;28;20038;-53
2022/11/11 06:47:35;;;;;;;39.15;29.25;;;;;;;8.58;100.00;102568.22;5031428;28;20042;-55
2022/11/11 06:50:01;;;;;;;43.10;29.88;;;;;;;8.52;100.00;102564.72;5032215;28;20040;-52
2022/11/11 06:52:26;;;;;;;41.38;30.00;;;;;;;8.49;100.00;102563.84;5033723;28;20041;-57
2022/11/11 06:54:51;;;;;;;41.13;30.00;;;;;;;8.45;100.00;102564.72;5032876;28;20033;-51
2022/11/11 06:57:17;;;;;;;48.35;30.00;;;;;;;8.61;100.00;102598.91;5016735;28;20034;-50
2022/11/11 06:59:42;;;;;;;44.83;29.63;;;;;;;8.49;100.00;102565.59;5034206;28;20030;-50
2022/11/11 07:02:11;;;;;;;44.33;29.58;;;;;;;8.73;100.00;102612.91;5034103;28;20160;-56
2022/11/11 07:04:37;;;;;;;46.38;29.92;;;;;;;8.77;100.00;102633.06;5016333;28;20059;-53
2022/11/11 07:07:02;;;;;;;44.92;29.55;;;;;;;8.44;100.00;102569.94;5034067;28;20057;-51
2022/11/11 07:09:28;;;;;;;48.50;30.52;;;;;;;8.46;100.00;102587.44;5034089;28;20120;-49
2022/11/11 07:11:53;;;;;;;48.92;30.83;;;;;;;8.42;100.00;102576.94;5034047;28;20060;-50
2022/11/11 07:14:18;;;;;;;45.95;29.95;;;;;;;8.68;100.00;102629.53;5034334;28;20103;-48
2022/11/11 07:16:44;;;;;;;48.38;28.15;;;;;;;8.72;100.00;102636.56;5034041;28;20455;-49
2022/11/11 07:19:09;;;;;;;45.67;28.35;;;;;;;8.71;100.00;102640.91;5033945;28;20040;-51
2022/11/11 07:21:34;;;;;;;42.22;27.38;;;;;;;8.70;100.00;102636.53;5033734;28;20060;-51
2022/11/11 07:23:59;;;;;;;45.00;30.27;;;;;;;8.46;100.00;102595.31;5034464;28;20049;-48
2022/11/11 07:26:25;;;;;;;42.50;28.40;;;;;;;8.69;100.00;102633.91;5033938;28;20040;-50
2022/11/11 07:28:50;;;;;;;38.97;28.05;;;;;;;8.53;100.00;102603.22;5033858;28;20037;-50
2022/11/11 07:31:15;;;;;;;42.60;26.42;;;;;;;8.80;100.00;102661.09;5033828;28;20036;-50
2022/11/11 07:33:41;;;;;;;39.00;26.52;;;;;;;8.48;100.00;102601.47;5033696;28;20040;-54
2022/11/11 07:36:06;;;;;;;37.67;27.42;;;;;;;8.80;100.00;102666.34;5033351;28;20409;-49
2022/11/11 07:38:31;;;;;;;41.75;27.77;;;;;;;8.81;100.00;102668.09;5015848;28;20037;-49
2022/11/11 07:40:57;;;;;;;43.60;26.50;;;;;;;8.80;100.00;102658.47;5033597;28;20037;-49
2022/11/11 07:43:24;;;;;;;41.92;27.90;;;;;;;8.79;100.00;102664.56;5033623;28;20099;-49
2022/11/11 07:45:49;;;;;;;37.53;27.45;;;;;;;8.83;100.00;102674.22;5033209;28;20041;-52
2022/11/11 07:48:14;;;;;;;46.70;28.88;;;;;;;8.48;100.00;102600.59;5033255;28;20068;-53
2022/11/11 07:50:40;;;;;;;35.95;27.80;;;;;;;8.86;100.00;102666.34;5015528;28;20056;-50
2022/11/11 07:53:05;;;;;;;36.80;28.42;;;;;;;8.94;100.00;102672.50;5033301;28;20080;-48
2022/11/11 07:55:30;;;;;;;39.22;27.83;;;;;;;8.94;100.00;102675.13;5015613;28;20037;-50
2022/11/11 07:57:57;;;;;;;39.15;26.50;;;;;;;9.05;100.00;102666.41;5033372;28;20088;-50
2022/11/11 08:00:22;;;;;;;45.03;28.65;;;;;;;9.13;100.00;102684.84;4999073;28;20068;-49
2022/11/11 08:02:48;;;;;;;43.83;28.65;;;;;;;9.07;100.00;102658.56;5015382;28;20468;-51
2022/11/11 08:05:14;;;;;;;38.85;27.13;;;;;;;8.99;100.00;102637.50;5014922;28;20032;-51
2022/11/11 08:07:41;;;;;;;38.63;28.02;;;;;;;9.09;100.00;102635.78;5015263;28;20041;-48
2022/11/11 08:10:07;;;;;;;38.42;27.67;;;;;;;9.32;100.00;102678.75;4999724;28;20451;-48
2022/11/11 08:15:16;;;;;;;38.72;29.38;;;;;;;9.25;100.00;102640.19;5033173;28;20091;-49
2022/11/11 08:17:41;;;;;;;38.22;28.20;;;;;;;9.62;100.00;102712.09;5032849;28;20037;-48
2022/11/11 08:20:08;;;;;;;38.97;28.17;;;;;;;9.67;100.00;102714.72;5033048;28;20045;-48
2022/11/11 08:22:37;;;;;;;35.25;27.13;;;;;;;9.68;100.00;102693.69;5033127;28;20100;-47
2022/11/11 08:25:05;;;;;;;38.05;27.35;;;;;;;9.57;100.00;102674.41;5032365;28;20037;-50
2022/11/11 08:27:30;;;;;;;38.03;27.98;;;;;;;9.74;100.00;102716.50;5032555;28;20381;-49
2022/11/11 08:29:55;;;;;;;37.88;28.02;;;;;;;9.82;100.00;102723.50;5014956;28;20039;-49
2022/11/11 08:32:20;;;;;;;37.03;27.00;;;;;;;9.64;100.00;102689.31;5032554;28;20048;-48
2022/11/11 08:34:46;;;;;;;35.97;28.45;;;;;;;9.81;100.00;102727.00;5032517;28;20113;-47
2022/11/11 08:37:11;;;;;;;38.55;27.38;;;;;;;9.92;100.00;102733.16;5015063;28;20049;-53
2022/11/11 08:39:36;;;;;;;33.10;27.02;;;;;;;9.95;100.00;102724.41;5032507;28;20033;-47
2022/11/11 08:42:02;;;;;;;37.85;28.25;;;;;;;9.76;100.00;102677.91;5032144;28;20129;-50
2022/11/11 08:44:27;;;;;;;36.83;28.15;;;;;;;10.14;100.00;102732.31;5032357;28;20128;-47
2022/11/11 08:46:52;;;;;;;40.25;29.60;;;;;;;10.18;100.00;102737.56;5032280;28;20038;-49
2022/11/11 08:49:18;;;;;;;38.72;28.45;;;;;;;10.06;100.00;102713.00;5032658;28;20033;-49
2022/11/11 08:51:43;;;;;;;36.45;27.08;;;;;;;10.21;100.00;102737.56;5013162;28;20095;-51
2022/11/11 08:54:08;;;;;;;35.88;27.85;;;;;;;9.99;100.00;102682.28;5031497;28;20085;-48
2022/11/11 08:56:34;;;;;;;36.15;29.35;;;;;;;10.32;100.00;102733.16;5031345;28;20041;-49
2022/11/11 08:58:59;;;;;;;37.42;27.98;;;;;;;10.12;100.00;102706.84;5031349;28;20117;-48
2022/11/11 09:01:24;;;;;;;38.35;27.05;;;;;;;10.06;100.00;102698.97;5031253;28;20040;-50
2022/11/11 09:03:49;;;;;;;38.78;27.30;;;;;;;10.10;100.00;102709.47;5013581;28;20044;-50
2022/11/11 09:06:15;;;;;;;36.40;27.73;;;;;;;10.43;100.00;102747.19;5031201;28;20068;-52
2022/11/11 09:08:42;;;;;;;38.05;30.30;;;;;;;10.15;100.00;102701.63;5031138;28;20043;-50
2022/11/11 09:11:07;;;;;;;37.15;28.02;;;;;;;10.21;100.00;102698.97;5013673;28;20389;-50
2022/11/11 09:13:32;;;;;;;37.95;28.27;;;;;;;10.25;100.00;102726.16;5031228;28;20038;-55
2022/11/11 09:15:58;;;;;;;37.55;28.27;;;;;;;10.50;100.00;102775.28;5031287;28;20037;-51
2022/11/11 09:18:24;;;;;;;34.78;27.40;;;;;;;10.24;100.00;102722.66;5032781;28;20068;-50
2022/11/11 09:20:49;;;;;;;36.70;27.45;;;;;;;10.56;100.00;102772.63;5034931;28;20569;-52
2022/11/11 09:23:15;;;;;;;35.03;26.67;;;;;;;10.53;100.00;102765.63;5017142;28;20116;-52
2022/11/11 09:25:40;;;;;;;35.25;26.88;;;;;;;10.62;100.00;102772.63;5035163;28;20038;-53
2022/11/11 09:28:06;;;;;;;36.33;26.48;;;;;;;10.67;100.00;102776.13;5034760;28;20047;-52
2022/11/11 09:30:32;;;;;;;35.97;26.83;;;;;;;10.50;100.00;102746.31;5034726;28;20068;-51
2022/11/11 09:33:01;;;;;;;33.85;25.58;;;;;;;10.84;100.00;102783.97;5035231;28;20485;-53
2022/11/11 09:35:26;;;;;;;34.78;26.30;;;;;;;10.87;100.00;102797.13;5017386;28;20069;-54
2022/11/11 09:37:57;;;;;;;33.83;26.80;;;;;;;10.58;100.00;102736.63;5034795;28;20469;-54
2022/11/11 09:40:37;;;;;;;34.63;26.52;;;;;;;10.89;100.00;102787.47;5034909;28;20038;-51
2022/11/11 09:43:17;;;;;;;34.55;25.63;;;;;;;10.70;100.00;102749.78;5017032;28;20021;-50
2022/11/11 09:46:23;;;;;;;35.97;27.38;;;;;;;11.03;100.00;102806.78;5017657;28;20042;-52
2022/11/11 09:49:16;;;;;;;31.33;25.55;;;;;;;11.08;100.00;102810.25;4934793;29;20423;-50
2022/11/11 09:51:57;;;;;;;34.17;24.50;;;;;;;11.00;100.00;102815.56;4934718;29;20051;-49
2022/11/11 09:54:44;;;;;;;31.08;23.75;;;;;;;11.05;100.00;102803.25;4994095;28;20179;-53
2022/11/11 09:57:36;;;;;;;32.03;24.88;;;;;;;11.05;100.00;102815.53;5016770;28;20034;-53
2022/11/11 10:00:01;;;;;;;;;;;;;;;11.09;100.00;102823.41;5023375;28;20045;-55
2022/11/11 10:02:39;;;;;;;29.85;24.35;;;;;;;11.03;100.00;102817.31;5016680;28;19917;-54
2022/11/11 10:05:10;;;;;;;28.67;22.73;;;;;;;10.93;100.00;102821.72;5034404;28;20029;-51
2022/11/11 10:07:55;;;;;;;33.17;24.60;;;;;;;11.00;100.00;102826.09;5034176;28;20034;-52
2022/11/11 10:10:40;;;;;;;28.27;23.67;;;;;;;11.05;100.00;102831.34;5016488;28;20033;-50
2022/11/11 10:13:13;;;;;;;30.60;23.30;;;;;;;11.05;100.00;102826.06;5016139;28;20030;-50
2022/11/11 10:15:46;;;;;;;27.45;23.42;;;;;;;11.08;100.00;102834.84;5034130;28;20116;-51
2022/11/11 10:18:26;;;;;;;32.63;24.15;;;;;;;11.20;100.00;102841.84;5016464;28;20064;-53
2022/11/11 10:20:55;;;;;;;30.45;23.83;;;;;;;10.91;100.00;102785.72;5034104;28;20041;-53
2022/11/11 10:23:28;;;;;;;32.80;21.67;;;;;;;11.06;100.00;102819.94;5033865;28;20048;-53
2022/11/11 10:25:55;;;;;;;29.50;23.05;;;;;;;10.91;100.00;102791.88;5016197;28;20483;-52
2022/11/11 10:28:27;;;;;;;30.00;23.15;;;;;;;10.92;100.00;102788.34;5033620;28;20044;-52
2022/11/11 10:30:53;;;;;;;24.48;21.08;;;;;;;11.21;100.00;102833.91;5015621;28;20037;-52
2022/11/11 10:33:31;;;;;;;25.50;21.30;;;;;;;11.23;100.00;102852.38;5033545;28;20083;-58
2022/11/11 10:36:00;;;;;;;23.77;20.58;;;;;;;11.14;100.00;102844.50;5015480;28;20132;-58
2022/11/11 10:38:53;;;;;;;30.38;22.35;;;;;;;10.82;100.00;102777.84;4999481;28;20103;-52
2022/11/11 10:41:22;;;;;;;29.38;20.58;;;;;;;11.31;100.00;102850.59;5016026;28;20042;-53
2022/11/11 10:43:48;;;;;;;25.45;21.10;;;;;;;11.40;100.00;102849.69;5016257;28;20385;-55
2022/11/11 10:46:13;;;;;;;23.25;19.73;;;;;;;11.20;100.00;102797.91;5033441;28;20040;-58
2022/11/11 10:48:52;;;;;;;24.75;18.67;;;;;;;11.21;100.00;102802.28;5033621;28;20483;-57
2022/11/11 10:51:18;;;;;;;22.85;18.73;;;;;;;11.32;100.00;102809.28;5015509;28;20037;-55
2022/11/11 10:53:59;;;;;;;20.92;17.60;;;;;;;11.39;100.00;102811.88;5033163;28;20056;-54
2022/11/11 10:56:42;;;;;;;22.50;19.23;;;;;;;11.43;100.00;102818.91;5015341;28;20072;-56
2022/11/11 10:59:19;;;;;;;23.80;18.88;;;;;;;11.67;100.00;102844.28;5015664;28;20099;-57
2022/11/11 11:01:53;;;;;;;19.35;17.20;;;;;;;11.60;100.00;102855.75;5015605;28;20428;-53
2022/11/11 11:04:24;;;;;;;21.17;17.50;;;;;;;11.61;100.00;102852.22;4999241;28;20026;-52
2022/11/11 11:06:50;;;;;;;;;;;;;;;11.71;100.00;102846.94;5033525;28;20061;-54
2022/11/11 11:09:38;;;;;;;22.52;17.85;;;;;;;11.71;100.00;102851.31;5015336;28;19959;-54
2022/11/11 11:12:12;;;;;;;19.95;17.50;;;;;;;11.50;100.00;102825.88;5015071;28;20113;-56
2022/11/11 11:14:43;;;;;;;18.85;16.60;;;;;;;11.59;100.00;102846.94;5015032;28;20381;-54
2022/11/11 11:17:18;;;;;;;21.83;17.93;;;;;;;11.44;100.00;102807.47;5015558;28;20103;-56
2022/11/11 11:19:44;;;;;;;21.33;16.77;;;;;;;11.80;100.00;102844.25;5033055;28;20033;-52
2022/11/11 11:22:09;;;;;;;19.70;15.85;;;;;;;11.82;100.00;102844.25;5015159;28;20029;-56
2022/11/11 11:24:36;;;;;;;19.95;17.58;;;;;;;11.62;100.00;102803.84;5032840;28;20120;-55
2022/11/11 11:27:10;;;;;;;21.88;17.38;;;;;;;11.96;100.00;102842.41;5032650;28;20045;-57
2022/11/11 11:29:41;;;;;;;17.60;15.43;;;;;;;11.79;100.00;102787.06;5032585;28;20053;-52
2022/11/11 11:32:30;;;;;;;21.58;17.08;;;;;;;12.06;100.00;102832.63;5015293;28;20029;-53
2022/11/11 11:34:56;;;;;;;18.02;15.25;;;;;;;12.10;100.00;102835.25;5019876;28;20162;-55
2022/11/11 11:37:23;;;;;;;17.02;15.23;;;;;;;11.99;100.00;102801.91;5014854;28;20033;-58
2022/11/11 11:40:02;;;;;;;17.73;16.02;;;;;;;12.05;100.00;102844.97;5032092;28;20053;-52
2022/11/11 11:42:34;;;;;;;17.55;14.43;;;;;;;12.05;100.00;102844.09;5032069;28;20055;-50
2022/11/11 11:45:18;;;;;;;17.42;14.63;;;;;;;12.00;100.00;102838.84;5014706;28;20038;-52
2022/11/11 11:48:08;;;;;;;15.00;12.85;;;;;;;11.77;100.00;102793.25;5032065;28;20051;-55
2022/11/11 11:50:49;;;;;;;19.65;13.88;;;;;;;12.19;100.00;102855.44;5032497;28;20384;-56
2022/11/11 11:53:33;;;;;;;;;;;;;;;12.37;100.00;102839.47;4998907;28;20041;-54
2022/11/11 11:56:01;;;;;;;16.55;13.30;;;;;;;12.40;100.00;102844.72;5032008;28;20079;-52
2022/11/11 11:59:08;;;;;;;19.42;14.55;;;;;;;12.38;100.00;102839.44;5032202;28;20469;-57
2022/11/11 12:02:08;;;;;;;16.50;13.57;;;;;;;12.32;100.00;102838.59;5018823;28;20045;-58
2022/11/11 12:05:21;;;;;;;16.25;14.02;;;;;;;12.31;100.00;102835.09;5032539;28;20033;-56
2022/11/11 12:08:09;;;;;;;18.88;13.95;;;;;;;12.15;100.00;102798.25;4991959;28;20049;-52
2022/11/11 12:10:40;;;;;;;16.13;13.70;;;;;;;12.42;100.00;102845.56;5014431;28;20033;-56
2022/11/11 12:13:28;;;;;;;14.50;11.98;;;;;;;12.29;100.00;102791.97;5014653;28;20035;-56
2022/11/11 12:16:15;;;;;;;17.02;12.82;;;;;;;12.64;100.00;102846.28;4997921;28;20037;-57
2022/11/11 12:18:58;;;;;;;15.50;12.98;;;;;;;12.80;100.00;102846.09;5031976;28;20036;-53
2022/11/11 12:21:28;;;;;;;16.17;12.93;;;;;;;12.51;100.00;102790.03;5014168;28;20373;-55
2022/11/11 12:24:29;;;;;;;14.20;12.00;;;;;;;12.79;100.00;102841.69;5031879;28;20041;-54
2022/11/11 12:27:39;;;;;;;17.60;13.18;;;;;;;12.68;100.00;102817.16;5014021;28;20056;-56
2022/11/11 12:30:09;;;;;;;13.50;11.70;;;;;;;12.61;100.00;102798.75;4932129;29;20063;-57
2022/11/11 12:33:04;;;;;;;15.30;11.80;;;;;;;12.81;100.00;102836.41;5014378;28;20488;-56